Time,TemperatureF,DewpointF,PressureIn,WindDirection,WindDirectionDegrees,WindSpeedMPH,WindSpeedGustMPH,Humidity,HourlyPrecipIn,Conditions,Clouds,dailyrainin,SoftwareType,DateUTC
2013-08-19 00:00:00,62.2,60.2,30.13,East,86,0.0,0.0,93,0.00,,OVC120,0.00,VWS V14.01,2013-08-19 04:00:00,
2013-08-19 00:01:00,62.2,60.2,30.13,East,86,0.0,0.0,93,0.00,,OVC120,0.00,VWS V14.01,2013-08-19 04:01:00,
2013-08-19 00:02:00,62.2,60.2,30.13,East,86,0.0,0.0,93,0.00,,OVC120,0.00,VWS V14.01,2013-08-19 04:02:00,
2013-08-19 00:07:00,62.1,59.8,30.14,East,86,0.0,0.0,92,0.00,,OVC120,0.00,VWS V14.01,2013-08-19 04:07:00,
2013-08-19 00:12:00,61.9,59.9,30.14,East,86,0.0,0.0,93,0.00,,OVC120,0.00,VWS V14.01,2013-08-19 04:12:00,
2013-08-19 00:17:00,61.7,59.7,30.14,East,86,0.0,0.0,93,0.00,,OVC120,0.00,VWS V14.01,2013-08-19 04:17:00,
2013-08-19 00:22:00,61.4,59.4,30.15,East,86,0.0,0.0,93,0.00,,OVC120,0.00,VWS V14.01,2013-08-19 04:22:00,
2013-08-19 00:27:00,61.1,59.4,30.15,East,86,0.0,0.0,94,0.00,,OVC120,0.00,VWS V14.01,2013-08-19 04:27:00,
2013-08-19 00:32:00,60.9,59.5,30.15,East,86,0.0,0.0,95,0.00,,OVC120,0.00,VWS V14.01,2013-08-19 04:32:00,
2013-08-19 00:37:00,60.8,59.4,30.14,East,86,0.0,0.0,95,0.00,,OVC120,0.00,VWS V14.01,2013-08-19 04:37:00,
2013-08-19 00:42:00,60.6,59.5,30.14,East,86,0.0,0.0,96,0.00,,OVC120,0.00,VWS V14.01,2013-08-19 04:42:00,
2013-08-19 00:47:00,60.6,59.5,30.14,East,86,0.0,0.0,96,0.00,,OVC120,0.00,VWS V14.01,2013-08-19 04:47:00,
2013-08-19 00:53:00,60.5,59.4,30.14,East,86,0.0,0.0,96,0.00,,OVC120,0.00,VWS V14.01,2013-08-19 04:53:00,
2013-08-19 00:58:00,60.4,59.3,30.14,East,86,0.0,0.0,96,0.00,,OVC120,0.00,VWS V14.01,2013-08-19 04:58:00,
2013-08-19 01:03:00,60.5,59.7,30.14,East,86,0.0,0.0,97,0.00,,OVC120,0.00,VWS V14.01,2013-08-19 05:03:00,
2013-08-19 01:08:00,60.6,59.8,30.13,NNW,333,0.0,0.0,97,0.00,,OVC120,0.00,VWS V14.01,2013-08-19 05:08:00,
2013-08-19 01:13:00,60.7,59.8,30.14,NNW,333,0.0,0.0,97,0.00,,OVC120,0.00,VWS V14.01,2013-08-19 05:13:00,
2013-08-19 01:18:00,60.8,59.7,30.14,SSW,203,0.0,0.0,96,0.00,,OVC120,0.00,VWS V14.01,2013-08-19 05:18:00,
2013-08-19 01:23:00,60.7,59.6,30.14,SSW,203,0.0,0.0,96,0.00,,OVC120,0.00,VWS V14.01,2013-08-19 05:23:00,
2013-08-19 01:28:00,60.7,59.3,30.14,SSW,203,0.0,0.0,95,0.00,,OVC120,0.00,VWS V14.01,2013-08-19 05:28:00,
2013-08-19 01:33:00,60.6,59.2,30.14,SSW,203,0.0,0.0,95,0.00,,OVC120,0.00,VWS V14.01,2013-08-19 05:33:00,
2013-08-19 01:38:00,60.5,59.4,30.14,SW,217,0.0,0.0,96,0.00,,OVC120,0.00,VWS V14.01,2013-08-19 05:38:00,
2013-08-19 01:43:00,60.6,59.2,30.14,SW,217,0.0,0.0,95,0.00,,OVC120,0.00,VWS V14.01,2013-08-19 05:43:00,
2013-08-19 01:48:00,60.6,59.2,30.13,SW,217,0.0,0.0,95,0.00,,OVC120,0.00,VWS V14.01,2013-08-19 05:48:00,
2013-08-19 01:54:00,60.6,59.2,30.13,East,99,0.0,0.0,95,0.00,,OVC120,0.00,VWS V14.01,2013-08-19 05:54:00,
2013-08-19 01:59:00,60.6,59.2,30.12,SE,127,0.0,1.0,95,0.00,,OVC120,0.00,VWS V14.01,2013-08-19 05:59:00,
2013-08-19 02:04:00,60.7,59.3,30.12,ESE,119,0.0,1.0,95,0.00,,,0.00,VWS V14.01,2013-08-19 06:04:00,
2013-08-19 02:09:00,60.8,59.1,30.12,ESE,119,0.0,0.0,94,0.00,,,0.00,VWS V14.01,2013-08-19 06:09:00,
2013-08-19 02:14:00,61.0,59.3,30.12,ESE,120,0.0,0.0,94,0.00,,,0.00,VWS V14.01,2013-08-19 06:14:00,
2013-08-19 02:19:00,61.1,59.1,30.12,ESE,120,0.0,0.0,93,0.00,,,0.00,VWS V14.01,2013-08-19 06:19:00,
2013-08-19 02:24:00,61.0,59.0,30.12,SE,125,0.0,0.0,93,0.00,,,0.00,VWS V14.01,2013-08-19 06:24:00,
2013-08-19 02:29:00,60.9,58.9,30.12,SE,126,0.0,0.0,93,0.00,,,0.00,VWS V14.01,2013-08-19 06:29:00,
2013-08-19 02:34:00,60.7,58.7,30.12,SE,125,0.0,0.0,93,0.00,,,0.00,VWS V14.01,2013-08-19 06:34:00,
2013-08-19 02:39:00,60.5,58.5,30.12,SE,125,0.0,0.0,93,0.00,,,0.00,VWS V14.01,2013-08-19 06:39:00,
2013-08-19 02:44:00,60.4,58.4,30.12,SE,125,0.0,0.0,93,0.00,,,0.00,VWS V14.01,2013-08-19 06:44:00,
2013-08-19 02:49:00,60.3,58.6,30.12,SE,126,0.0,0.0,94,0.00,,,0.00,VWS V14.01,2013-08-19 06:49:00,
2013-08-19 02:54:00,60.0,58.3,30.12,SE,126,0.0,0.0,94,0.00,,,0.00,VWS V14.01,2013-08-19 06:54:00,
2013-08-19 03:00:00,59.9,58.2,30.12,SE,126,0.0,0.0,94,0.00,,,0.00,VWS V14.01,2013-08-19 07:00:00,
2013-08-19 03:05:00,59.8,58.1,30.12,ESE,108,0.0,0.0,94,0.00,,,0.00,VWS V14.01,2013-08-19 07:05:00,
2013-08-19 03:10:00,59.7,58.0,30.11,ESE,108,0.0,0.0,94,0.00,,,0.00,VWS V14.01,2013-08-19 07:10:00,
2013-08-19 03:15:00,59.7,58.0,30.11,ESE,108,0.0,0.0,94,0.00,,,0.00,VWS V14.01,2013-08-19 07:15:00,
2013-08-19 03:20:00,59.7,58.0,30.11,ESE,118,0.0,0.0,94,0.00,,,0.00,VWS V14.01,2013-08-19 07:20:00,
2013-08-19 03:25:00,59.7,58.0,30.11,ESE,118,0.0,0.0,94,0.00,,,0.00,VWS V14.01,2013-08-19 07:25:00,
2013-08-19 03:30:00,59.6,57.9,30.12,ESE,119,0.0,0.0,94,0.00,,,0.00,VWS V14.01,2013-08-19 07:30:00,
2013-08-19 03:35:00,59.5,57.8,30.11,ESE,118,0.0,0.0,94,0.00,,,0.00,VWS V14.01,2013-08-19 07:35:00,
2013-08-19 03:40:00,59.3,57.9,30.11,ESE,118,0.0,0.0,95,0.00,,,0.00,VWS V14.01,2013-08-19 07:40:00,
2013-08-19 03:45:00,59.1,57.7,30.11,ESE,118,0.0,0.0,95,0.00,,,0.00,VWS V14.01,2013-08-19 07:45:00,
2013-08-19 03:50:00,58.9,57.5,30.11,ESE,119,0.0,0.0,95,0.00,,,0.00,VWS V14.01,2013-08-19 07:50:00,
2013-08-19 03:55:00,58.8,57.4,30.11,ESE,118,0.0,0.0,95,0.00,,,0.00,VWS V14.01,2013-08-19 07:55:00,
2013-08-19 04:00:00,58.6,57.5,30.11,ESE,118,0.0,0.0,96,0.00,,,0.00,VWS V14.01,2013-08-19 08:00:00,
2013-08-19 04:05:00,58.6,57.5,30.11,ESE,118,0.0,0.0,96,0.00,,,0.00,VWS V14.01,2013-08-19 08:05:00,
2013-08-19 04:10:00,58.7,57.6,30.11,ESE,119,0.0,0.0,96,0.00,,,0.00,VWS V14.01,2013-08-19 08:10:00,
2013-08-19 04:15:00,58.7,57.6,30.11,ESE,118,0.0,0.0,96,0.00,,,0.00,VWS V14.01,2013-08-19 08:15:00,
2013-08-19 04:20:00,58.7,57.6,30.11,ESE,113,0.0,0.0,96,0.00,,,0.00,VWS V14.01,2013-08-19 08:20:00,
2013-08-19 04:25:00,58.8,57.7,30.11,ESE,113,0.0,0.0,96,0.00,,,0.00,VWS V14.01,2013-08-19 08:25:00,
2013-08-19 04:30:00,59.2,57.8,30.10,ESE,113,0.0,0.0,95,0.00,,,0.00,VWS V14.01,2013-08-19 08:30:00,
2013-08-19 04:35:00,59.6,57.9,30.10,ESE,113,0.0,0.0,94,0.00,,,0.00,VWS V14.01,2013-08-19 08:35:00,
2013-08-19 04:40:00,59.7,58.0,30.10,ESE,113,0.0,0.0,94,0.00,,,0.00,VWS V14.01,2013-08-19 08:40:00,
2013-08-19 04:45:00,59.8,57.8,30.11,ESE,113,0.0,0.0,93,0.00,,,0.00,VWS V14.01,2013-08-19 08:45:00,
2013-08-19 04:50:00,59.7,57.7,30.11,ESE,113,0.0,0.0,93,0.00,,,0.00,VWS V14.01,2013-08-19 08:50:00,
2013-08-19 04:55:00,59.6,57.6,30.11,ESE,113,0.0,0.0,93,0.00,,,0.00,VWS V14.01,2013-08-19 08:55:00,
2013-08-19 05:00:00,59.4,57.4,30.11,ESE,113,0.0,0.0,93,0.00,,,0.00,VWS V14.01,2013-08-19 09:00:00,
2013-08-19 05:05:00,59.3,57.6,30.12,ESE,113,0.0,0.0,94,0.00,,CLR,0.00,VWS V14.01,2013-08-19 09:05:00,
2013-08-19 05:10:00,59.2,57.8,30.12,ESE,113,0.0,0.0,95,0.00,,CLR,0.00,VWS V14.01,2013-08-19 09:10:00,
2013-08-19 05:15:00,59.1,57.7,30.12,ESE,113,0.0,0.0,95,0.00,,CLR,0.00,VWS V14.01,2013-08-19 09:15:00,
2013-08-19 05:20:00,59.0,57.6,30.12,ESE,113,0.0,0.0,95,0.00,,CLR,0.00,VWS V14.01,2013-08-19 09:20:00,
2013-08-19 05:25:00,59.0,57.6,30.12,ESE,113,0.0,0.0,95,0.00,,CLR,0.00,VWS V14.01,2013-08-19 09:25:00,
2013-08-19 05:30:00,59.2,58.1,30.12,West,263,0.0,0.0,96,0.00,,CLR,0.00,VWS V14.01,2013-08-19 09:30:00,
2013-08-19 05:35:00,59.5,58.4,30.12,West,261,0.0,0.0,96,0.00,,CLR,0.00,VWS V14.01,2013-08-19 09:35:00,
2013-08-19 05:40:00,59.4,58.0,30.12,West,262,0.0,0.0,95,0.00,,CLR,0.00,VWS V14.01,2013-08-19 09:40:00,
2013-08-19 05:45:00,59.5,58.4,30.11,West,262,0.0,0.0,96,0.00,,CLR,0.00,VWS V14.01,2013-08-19 09:45:00,
2013-08-19 05:50:00,59.7,58.3,30.11,West,261,0.0,0.0,95,0.00,,CLR,0.00,VWS V14.01,2013-08-19 09:50:00,
2013-08-19 05:55:00,59.7,58.3,30.11,SE,145,0.0,0.0,95,0.00,,CLR,0.00,VWS V14.01,2013-08-19 09:55:00,
2013-08-19 06:00:00,59.6,58.2,30.11,SE,145,0.0,0.0,95,0.00,,CLR,0.00,VWS V14.01,2013-08-19 10:00:00,
2013-08-19 06:05:00,59.5,58.1,30.11,SE,145,0.0,0.0,95,0.00,,CLR,0.00,VWS V14.01,2013-08-19 10:05:00,
2013-08-19 06:10:00,59.5,58.4,30.11,SE,143,0.0,0.0,96,0.00,,CLR,0.00,VWS V14.01,2013-08-19 10:10:00,
2013-08-19 06:15:00,59.6,58.5,30.11,SE,144,0.0,0.0,96,0.00,,CLR,0.00,VWS V14.01,2013-08-19 10:15:00,
2013-08-19 06:20:00,59.8,58.7,30.12,SE,145,0.0,0.0,96,0.00,,CLR,0.00,VWS V14.01,2013-08-19 10:20:00,
2013-08-19 06:25:00,59.8,58.4,30.12,SE,145,0.0,0.0,95,0.00,,CLR,0.00,VWS V14.01,2013-08-19 10:25:00,
2013-08-19 06:30:00,59.8,58.4,30.12,SE,143,0.0,0.0,95,0.00,,CLR,0.00,VWS V14.01,2013-08-19 10:30:00,
2013-08-19 06:35:00,59.7,58.3,30.12,SE,145,0.0,0.0,95,0.00,,CLR,0.00,VWS V14.01,2013-08-19 10:35:00,
2013-08-19 06:40:00,59.5,58.1,30.11,ESE,120,0.0,1.0,95,0.00,,CLR,0.00,VWS V14.01,2013-08-19 10:40:00,
2013-08-19 06:45:00,59.4,58.3,30.12,SE,124,0.0,0.0,96,0.00,,CLR,0.00,VWS V14.01,2013-08-19 10:45:00,
2013-08-19 06:50:00,59.3,58.2,30.12,SE,134,0.0,0.0,96,0.00,,CLR,0.00,VWS V14.01,2013-08-19 10:50:00,
2013-08-19 06:56:00,59.4,58.5,30.12,SE,131,0.0,0.0,97,0.00,,CLR,0.00,VWS V14.01,2013-08-19 10:56:00,
2013-08-19 07:01:00,59.5,58.7,30.12,SE,129,0.0,0.0,97,0.00,,CLR,0.00,VWS V14.01,2013-08-19 11:01:00,
2013-08-19 07:06:00,59.7,58.8,30.12,SE,129,0.0,0.0,97,0.00,,,0.00,VWS V14.01,2013-08-19 11:06:00,
2013-08-19 07:11:00,60.1,59.2,30.12,East,101,0.0,0.0,97,0.00,,,0.00,VWS V14.01,2013-08-19 11:11:00,
2013-08-19 07:16:00,60.2,59.3,30.12,ESE,102,0.0,0.0,97,0.00,,,0.00,VWS V14.01,2013-08-19 11:16:00,
2013-08-19 07:21:00,60.6,59.8,30.12,East,101,0.0,0.0,97,0.00,,,0.00,VWS V14.01,2013-08-19 11:21:00,
2013-08-19 07:26:00,61.0,60.2,30.11,East,94,0.0,1.0,97,0.00,,,0.00,VWS V14.01,2013-08-19 11:26:00,
2013-08-19 07:31:00,61.3,60.4,30.11,East,81,0.0,1.0,97,0.00,,,0.00,VWS V14.01,2013-08-19 11:31:00,
2013-08-19 07:36:00,61.6,60.7,30.11,East,96,0.0,0.0,97,0.00,,,0.00,VWS V14.01,2013-08-19 11:36:00,
2013-08-19 07:41:00,61.7,60.5,30.11,East,96,0.0,0.0,96,0.00,,,0.00,VWS V14.01,2013-08-19 11:41:00,
2013-08-19 07:46:00,62.0,60.8,30.11,NNW,346,0.0,0.0,96,0.00,,,0.00,VWS V14.01,2013-08-19 11:46:00,
2013-08-19 07:51:00,62.3,60.8,30.11,NNW,333,0.0,1.0,95,0.00,,,0.00,VWS V14.01,2013-08-19 11:51:00,
2013-08-19 07:57:00,62.6,60.8,30.11,NNW,333,0.0,0.0,94,0.00,,,0.00,VWS V14.01,2013-08-19 11:57:00,
2013-08-19 08:02:00,62.7,60.3,30.11,NNW,333,0.0,0.0,92,0.00,,,0.00,VWS V14.01,2013-08-19 12:02:00,
2013-08-19 08:07:00,63.1,61.0,30.11,NNW,333,0.0,0.0,93,0.00,,,0.00,VWS V14.01,2013-08-19 12:07:00,
2013-08-19 08:12:00,63.2,60.8,30.11,NW,321,0.0,0.0,92,0.00,,,0.00,VWS V14.01,2013-08-19 12:12:00,
2013-08-19 08:17:00,63.4,60.7,30.11,NW,321,0.0,0.0,91,0.00,,,0.00,VWS V14.01,2013-08-19 12:17:00,
2013-08-19 08:22:00,63.9,60.9,30.11,NW,321,0.0,0.0,90,0.00,,,0.00,VWS V14.01,2013-08-19 12:22:00,
2013-08-19 08:27:00,64.3,61.0,30.11,WSW,246,0.0,0.0,89,0.00,,,0.00,VWS V14.01,2013-08-19 12:27:00,
2013-08-19 08:32:00,64.1,60.5,30.11,SW,233,0.0,0.0,88,0.00,,,0.00,VWS V14.01,2013-08-19 12:32:00,
2013-08-19 08:37:00,64.2,60.9,30.11,SW,221,0.0,1.0,89,0.00,,,0.00,VWS V14.01,2013-08-19 12:37:00,
2013-08-19 08:42:00,64.2,60.6,30.11,WSW,240,1.0,1.0,88,0.00,,,0.00,VWS V14.01,2013-08-19 12:42:00,
2013-08-19 08:47:00,64.5,61.5,30.12,SW,224,0.0,0.0,90,0.00,,,0.00,VWS V14.01,2013-08-19 12:47:00,
2013-08-19 08:52:00,64.9,61.6,30.12,SW,234,0.0,0.0,89,0.00,,,0.00,VWS V14.01,2013-08-19 12:52:00,
2013-08-19 08:58:00,65.0,61.7,30.12,West,280,0.0,0.0,89,0.00,,,0.00,VWS V14.01,2013-08-19 12:58:00,
2013-08-19 09:03:00,64.9,61.3,30.12,WSW,245,0.0,1.0,88,0.00,,,0.00,VWS V14.01,2013-08-19 13:03:00,
2013-08-19 09:08:00,65.1,61.8,30.12,SW,223,0.0,0.0,89,0.00,,CLR,0.00,VWS V14.01,2013-08-19 13:08:00,
2013-08-19 09:13:00,65.2,61.9,30.13,WSW,256,0.0,1.0,89,0.00,,CLR,0.00,VWS V14.01,2013-08-19 13:13:00,
2013-08-19 09:18:00,65.4,62.4,30.13,WSW,255,0.0,1.0,90,0.00,,CLR,0.00,VWS V14.01,2013-08-19 13:18:00,
2013-08-19 09:23:00,65.5,62.2,30.13,West,266,0.0,1.0,89,0.00,,CLR,0.00,VWS V14.01,2013-08-19 13:23:00,
2013-08-19 09:28:00,65.7,62.7,30.12,West,262,0.0,0.0,90,0.00,,CLR,0.00,VWS V14.01,2013-08-19 13:28:00,
2013-08-19 09:33:00,65.9,62.9,30.12,WNW,289,0.0,0.0,90,0.00,,CLR,0.00,VWS V14.01,2013-08-19 13:33:00,
2013-08-19 09:38:00,66.2,63.2,30.12,West,280,0.0,1.0,90,0.00,,CLR,0.00,VWS V14.01,2013-08-19 13:38:00,
2013-08-19 09:43:00,66.3,62.6,30.12,West,266,0.0,1.0,88,0.00,,CLR,0.00,VWS V14.01,2013-08-19 13:43:00,
2013-08-19 09:48:00,66.6,62.9,30.12,WSW,238,0.0,1.0,88,0.00,,CLR,0.00,VWS V14.01,2013-08-19 13:48:00,
2013-08-19 09:53:00,66.9,62.9,30.11,SSE,163,0.0,2.0,87,0.00,,CLR,0.00,VWS V14.01,2013-08-19 13:53:00,
2013-08-19 09:58:00,67.5,63.2,30.11,WSW,255,0.0,1.0,86,0.00,,CLR,0.00,VWS V14.01,2013-08-19 13:58:00,
2013-08-19 10:04:00,67.6,62.9,30.12,WSW,255,0.0,1.0,85,0.00,,FEW120,0.00,VWS V14.01,2013-08-19 14:04:00,
2013-08-19 10:09:00,67.7,63.4,30.11,WSW,249,0.0,3.0,86,0.00,,FEW120,0.00,VWS V14.01,2013-08-19 14:09:00,
2013-08-19 10:14:00,68.1,63.4,30.11,SW,232,0.0,1.0,85,0.00,,FEW120,0.00,VWS V14.01,2013-08-19 14:14:00,
2013-08-19 10:19:00,68.4,63.4,30.11,WNW,287,0.0,2.0,84,0.00,,FEW120,0.00,VWS V14.01,2013-08-19 14:19:00,
2013-08-19 10:24:00,69.0,63.6,30.11,West,259,2.0,3.0,83,0.00,,FEW120,0.00,VWS V14.01,2013-08-19 14:24:00,
2013-08-19 10:29:00,68.9,63.5,30.11,SSW,194,0.0,1.0,83,0.00,,FEW120,0.00,VWS V14.01,2013-08-19 14:29:00,
2013-08-19 10:34:00,69.4,63.7,30.11,SW,232,0.0,1.0,82,0.00,,FEW120,0.00,VWS V14.01,2013-08-19 14:34:00,
2013-08-19 10:39:00,69.4,63.7,30.11,WSW,246,2.0,3.0,82,0.00,,FEW120,0.00,VWS V14.01,2013-08-19 14:39:00,
2013-08-19 10:44:00,69.7,64.0,30.11,WSW,243,0.0,2.0,82,0.00,,FEW120,0.00,VWS V14.01,2013-08-19 14:44:00,
2013-08-19 10:49:00,69.9,63.8,30.10,WNW,293,0.0,1.0,81,0.00,,FEW120,0.00,VWS V14.01,2013-08-19 14:49:00,
2013-08-19 10:54:00,70.8,64.7,30.10,SSE,166,1.0,2.0,81,0.00,,FEW120,0.00,VWS V14.01,2013-08-19 14:54:00,
2013-08-19 10:59:00,70.5,64.0,30.10,SW,233,1.0,4.0,80,0.00,,FEW120,0.00,VWS V14.01,2013-08-19 14:59:00,
2013-08-19 11:04:00,70.0,63.9,30.10,SW,233,0.0,3.0,81,0.00,,FEW110,0.00,VWS V14.01,2013-08-19 15:04:00,
2013-08-19 11:10:00,69.9,64.2,30.10,SW,228,4.0,4.0,82,0.00,,FEW110,0.00,VWS V14.01,2013-08-19 15:10:00,
2013-08-19 11:15:00,69.7,64.3,30.10,West,262,0.0,1.0,83,0.00,,FEW110,0.00,VWS V14.01,2013-08-19 15:15:00,
2013-08-19 11:20:00,70.0,64.3,30.09,SSE,159,0.0,2.0,82,0.00,,FEW110,0.00,VWS V14.01,2013-08-19 15:20:00,
2013-08-19 11:25:00,70.5,64.0,30.09,WSW,245,0.0,3.0,80,0.00,,FEW110,0.00,VWS V14.01,2013-08-19 15:25:00,
2013-08-19 11:30:00,70.9,65.1,30.09,SSE,147,1.0,3.0,82,0.00,,FEW110,0.00,VWS V14.01,2013-08-19 15:30:00,
2013-08-19 11:35:00,71.6,64.8,30.09,SE,128,0.0,3.0,79,0.00,,FEW110,0.00,VWS V14.01,2013-08-19 15:35:00,
2013-08-19 11:40:00,71.9,65.8,30.09,WNW,286,1.0,2.0,81,0.00,,FEW110,0.00,VWS V14.01,2013-08-19 15:40:00,
2013-08-19 11:45:00,71.9,65.0,30.09,SW,232,0.0,2.0,79,0.00,,FEW110,0.00,VWS V14.01,2013-08-19 15:45:00,
2013-08-19 11:50:00,71.9,65.0,30.09,West,273,1.0,2.0,79,0.00,,FEW110,0.00,VWS V14.01,2013-08-19 15:50:00,
2013-08-19 11:55:00,72.1,65.2,30.09,South,187,2.0,5.0,79,0.00,,FEW110,0.00,VWS V14.01,2013-08-19 15:55:00,
2013-08-19 12:00:00,71.9,64.7,30.09,SW,228,3.0,5.0,78,0.00,,FEW110,0.00,VWS V14.01,2013-08-19 16:00:00,
2013-08-19 12:05:00,71.3,64.8,30.09,WSW,240,2.0,2.0,80,0.00,,BKN021,0.00,VWS V14.01,2013-08-19 16:05:00,
2013-08-19 12:10:00,70.9,64.8,30.09,SSW,200,0.0,0.0,81,0.00,,BKN021,0.00,VWS V14.01,2013-08-19 16:10:00,
2013-08-19 12:15:00,71.3,64.8,30.09,WSW,243,2.0,2.0,80,0.00,,BKN021,0.00,VWS V14.01,2013-08-19 16:15:00,
2013-08-19 12:20:00,71.1,64.6,30.09,WSW,240,4.0,5.0,80,0.00,,BKN021,0.00,VWS V14.01,2013-08-19 16:20:00,
2013-08-19 12:25:00,71.1,65.0,30.08,SSW,194,1.0,2.0,81,0.00,,BKN021,0.00,VWS V14.01,2013-08-19 16:25:00,
2013-08-19 12:30:00,71.2,65.1,30.08,SSE,166,4.0,4.0,81,0.00,,BKN021,0.00,VWS V14.01,2013-08-19 16:30:00,
2013-08-19 12:35:00,71.3,64.8,30.08,SSW,194,2.0,4.0,80,0.00,,SCT021,0.00,VWS V14.01,2013-08-19 16:35:00,
2013-08-19 12:40:00,71.1,65.0,30.08,SW,225,4.0,4.0,81,0.00,,SCT021,0.00,VWS V14.01,2013-08-19 16:40:00,
2013-08-19 12:45:00,70.7,64.9,30.08,SSW,196,2.0,2.0,82,0.00,,SCT021,0.00,VWS V14.01,2013-08-19 16:45:00,
2013-08-19 12:50:00,70.8,65.0,30.08,SW,224,0.0,1.0,82,0.00,,SCT021,0.00,VWS V14.01,2013-08-19 16:50:00,
2013-08-19 12:55:00,70.9,64.8,30.08,SSW,212,0.0,2.0,81,0.00,,SCT021,0.00,VWS V14.01,2013-08-19 16:55:00,
2013-08-19 13:00:00,70.9,65.1,30.08,SW,217,2.0,3.0,82,0.00,,SCT021,0.00,VWS V14.01,2013-08-19 17:00:00,
2013-08-19 13:05:00,70.9,64.8,30.08,South,184,3.0,4.0,81,0.00,,SCT100,0.00,VWS V14.01,2013-08-19 17:05:00,
2013-08-19 13:10:00,70.7,64.9,30.08,SSE,153,1.0,2.0,82,0.00,,SCT100,0.00,VWS V14.01,2013-08-19 17:10:00,
2013-08-19 13:15:00,70.6,64.8,30.08,WSW,243,1.0,1.0,82,0.00,,SCT100,0.00,VWS V14.01,2013-08-19 17:15:00,
2013-08-19 13:20:00,70.6,65.2,30.08,WSW,248,1.0,1.0,83,0.00,,SCT100,0.00,VWS V14.01,2013-08-19 17:20:00,
2013-08-19 13:25:00,70.7,64.9,30.08,WSW,248,0.0,2.0,82,0.00,,SCT100,0.00,VWS V14.01,2013-08-19 17:25:00,
2013-08-19 13:30:00,70.8,65.0,30.08,WSW,243,0.0,2.0,82,0.00,,SCT100,0.00,VWS V14.01,2013-08-19 17:30:00,
2013-08-19 13:36:00,70.8,65.0,30.08,SW,229,0.0,0.0,82,0.00,,SCT100,0.00,VWS V14.01,2013-08-19 17:36:00,
2013-08-19 13:41:00,71.2,65.4,30.08,SSW,194,0.0,0.0,82,0.00,,SCT100,0.00,VWS V14.01,2013-08-19 17:41:00,
2013-08-19 13:46:00,71.6,65.5,30.08,WSW,245,0.0,0.0,81,0.00,,SCT100,0.00,VWS V14.01,2013-08-19 17:46:00,
2013-08-19 13:51:00,71.8,65.7,30.08,WSW,256,0.0,1.0,81,0.00,,SCT100,0.00,VWS V14.01,2013-08-19 17:51:00,
2013-08-19 13:56:00,71.4,65.3,30.08,West,259,0.0,1.0,81,0.00,,SCT100,0.00,VWS V14.01,2013-08-19 17:56:00,
2013-08-19 14:01:00,70.9,65.5,30.08,West,271,1.0,4.0,83,0.00,,SCT100,0.00,VWS V14.01,2013-08-19 18:01:00,
2013-08-19 14:06:00,70.6,65.5,30.08,WNW,294,0.0,1.0,84,0.00,,BKN020,0.00,VWS V14.01,2013-08-19 18:06:00,
2013-08-19 14:11:00,70.3,65.2,30.08,WNW,301,0.0,4.0,84,0.00,,BKN020,0.00,VWS V14.01,2013-08-19 18:11:00,
2013-08-19 14:16:00,70.0,66.0,30.08,NW,305,1.0,4.0,87,0.00,,BKN020,0.00,VWS V14.01,2013-08-19 18:16:00,
2013-08-19 14:21:00,69.9,66.2,30.07,North,355,3.0,3.0,88,0.00,,BKN020,0.00,VWS V14.01,2013-08-19 18:21:00,
2013-08-19 14:26:00,69.8,65.4,30.07,WNW,287,2.0,5.0,86,0.00,,BKN020,0.00,VWS V14.01,2013-08-19 18:26:00,
2013-08-19 14:32:00,69.9,65.5,30.07,NW,308,0.0,2.0,86,0.00,,BKN020,0.00,VWS V14.01,2013-08-19 18:32:00,
2013-08-19 14:37:00,70.0,65.3,30.07,WNW,294,0.0,3.0,85,0.00,,-RA,0.00,VWS V14.01,2013-08-19 18:37:00,
2013-08-19 14:42:00,70.5,65.8,30.07,NW,305,1.0,2.0,85,0.00,,-RA,0.00,VWS V14.01,2013-08-19 18:42:00,
2013-08-19 14:47:00,70.6,65.9,30.07,NW,309,0.0,2.0,85,0.00,,-RA,0.00,VWS V14.01,2013-08-19 18:47:00,
2013-08-19 14:52:00,71.0,65.9,30.07,WNW,293,2.0,3.0,84,0.00,,-RA,0.00,VWS V14.01,2013-08-19 18:52:00,
2013-08-19 14:57:00,71.1,65.7,30.07,SW,235,2.0,3.0,83,0.00,,-RA,0.00,VWS V14.01,2013-08-19 18:57:00,
2013-08-19 15:02:00,71.5,65.7,30.07,WNW,283,0.0,5.0,82,0.00,,-RA,0.00,VWS V14.01,2013-08-19 19:02:00,
2013-08-19 15:07:00,71.6,65.8,30.07,WSW,242,3.0,4.0,82,0.00,,FEW032,0.00,VWS V14.01,2013-08-19 19:07:00,
2013-08-19 15:12:00,71.3,65.2,30.07,SW,232,0.0,5.0,81,0.00,,FEW032,0.00,VWS V14.01,2013-08-19 19:12:00,
2013-08-19 15:17:00,71.3,65.5,30.07,WNW,284,1.0,3.0,82,0.00,,FEW032,0.00,VWS V14.01,2013-08-19 19:17:00,
2013-08-19 15:22:00,71.4,65.3,30.06,West,271,2.0,2.0,81,0.00,,FEW032,0.00,VWS V14.01,2013-08-19 19:22:00,
2013-08-19 15:28:00,71.4,65.6,30.06,SSW,207,1.0,3.0,82,0.00,,FEW032,0.00,VWS V14.01,2013-08-19 19:28:00,
2013-08-19 15:33:00,71.6,66.2,30.06,West,261,1.0,3.0,83,0.00,,FEW032,0.00,VWS V14.01,2013-08-19 19:33:00,
2013-08-19 15:38:00,72.3,66.5,30.06,South,174,0.0,1.0,82,0.00,,-RA,0.00,VWS V14.01,2013-08-19 19:38:00,
2013-08-19 15:43:00,72.9,66.7,30.06,SE,134,1.0,2.0,81,0.00,,-RA,0.00,VWS V14.01,2013-08-19 19:43:00,
2013-08-19 15:48:00,73.1,67.3,30.06,SE,139,4.0,4.0,82,0.00,,-RA,0.00,VWS V14.01,2013-08-19 19:48:00,
2013-08-19 15:53:00,73.1,66.6,30.06,SE,127,2.0,3.0,80,0.00,,-RA,0.00,VWS V14.01,2013-08-19 19:53:00,
2013-08-19 15:58:00,72.9,66.7,30.06,ESE,122,0.0,4.0,81,0.00,,-RA,0.00,VWS V14.01,2013-08-19 19:58:00,
2013-08-19 16:03:00,73.4,66.9,30.06,SW,219,0.0,6.0,80,0.00,,-RA,0.00,VWS V14.01,2013-08-19 20:03:00,
2013-08-19 16:08:00,73.6,66.3,30.06,South,172,1.0,4.0,78,0.00,,BKN080,0.00,VWS V14.01,2013-08-19 20:08:00,
2013-08-19 16:13:00,74.3,67.4,30.06,SW,219,4.0,5.0,79,0.00,,BKN080,0.00,VWS V14.01,2013-08-19 20:13:00,
2013-08-19 16:19:00,73.5,66.6,30.06,WSW,242,3.0,6.0,79,0.00,,BKN080,0.00,VWS V14.01,2013-08-19 20:19:00,
2013-08-19 16:24:00,73.3,67.1,30.06,South,181,0.0,4.0,81,0.00,,BKN080,0.00,VWS V14.01,2013-08-19 20:24:00,
2013-08-19 16:29:00,73.8,67.6,30.06,South,183,0.0,3.0,81,0.00,,BKN080,0.00,VWS V14.01,2013-08-19 20:29:00,
2013-08-19 16:34:00,74.2,67.6,30.05,SSE,152,3.0,4.0,80,0.00,,BKN080,0.00,VWS V14.01,2013-08-19 20:34:00,
2013-08-19 16:39:00,74.0,67.1,30.05,West,260,1.0,6.0,79,0.00,,BKN080,0.00,VWS V14.01,2013-08-19 20:39:00,
2013-08-19 16:44:00,74.3,67.4,30.06,SSW,212,4.0,4.0,79,0.00,,BKN080,0.00,VWS V14.01,2013-08-19 20:44:00,
2013-08-19 16:49:00,74.3,67.4,30.05,SW,231,3.0,4.0,79,0.00,,BKN080,0.00,VWS V14.01,2013-08-19 20:49:00,
2013-08-19 16:54:00,74.0,67.1,30.05,West,259,0.0,4.0,79,0.00,,BKN080,0.00,VWS V14.01,2013-08-19 20:54:00,
2013-08-19 16:59:00,74.4,67.1,30.05,SSE,152,3.0,6.0,78,0.00,,BKN080,0.00,VWS V14.01,2013-08-19 20:59:00,
2013-08-19 17:04:00,74.7,67.4,30.05,SW,221,1.0,5.0,78,0.00,,BKN034,0.00,VWS V14.01,2013-08-19 21:04:00,
2013-08-19 17:09:00,74.6,67.3,30.05,SSW,201,0.0,5.0,78,0.00,,BKN034,0.00,VWS V14.01,2013-08-19 21:09:00,
2013-08-19 17:14:00,74.3,67.0,30.05,WNW,290,0.0,4.0,78,0.00,,BKN034,0.00,VWS V14.01,2013-08-19 21:14:00,
2013-08-19 17:19:00,74.8,67.5,30.05,SW,231,6.0,7.0,78,0.00,,BKN034,0.00,VWS V14.01,2013-08-19 21:19:00,
2013-08-19 17:24:00,74.0,67.1,30.05,West,269,1.0,5.0,79,0.00,,BKN034,0.00,VWS V14.01,2013-08-19 21:24:00,
2013-08-19 17:29:00,73.8,67.2,30.05,SW,233,2.0,4.0,80,0.00,,BKN034,0.00,VWS V14.01,2013-08-19 21:29:00,
2013-08-19 17:35:00,73.7,66.8,30.05,SW,221,0.0,5.0,79,0.00,,BKN034,0.00,VWS V14.01,2013-08-19 21:35:00,
2013-08-19 17:40:00,74.1,67.5,30.05,SW,229,4.0,4.0,80,0.00,,BKN034,0.00,VWS V14.01,2013-08-19 21:40:00,
2013-08-19 17:45:00,74.0,67.1,30.05,SSE,154,0.0,5.0,79,0.00,,BKN034,0.00,VWS V14.01,2013-08-19 21:45:00,
2013-08-19 17:50:00,73.7,66.8,30.05,WSW,256,1.0,1.0,79,0.00,,BKN034,0.00,VWS V14.01,2013-08-19 21:50:00,
2013-08-19 17:55:00,73.4,66.5,30.05,WSW,250,1.0,1.0,79,0.00,,BKN034,0.00,VWS V14.01,2013-08-19 21:55:00,
2013-08-19 18:00:00,73.8,66.9,30.04,SW,225,6.0,7.0,79,0.00,,BKN034,0.00,VWS V14.01,2013-08-19 22:00:00,
2013-08-19 18:05:00,73.8,66.9,30.04,WSW,250,4.0,4.0,79,0.00,,SCT036,0.00,VWS V14.01,2013-08-19 22:05:00,
2013-08-19 18:10:00,73.9,66.6,30.04,WSW,255,1.0,1.0,78,0.00,,SCT036,0.00,VWS V14.01,2013-08-19 22:10:00,
2013-08-19 18:15:00,74.1,66.8,30.04,SW,233,0.0,2.0,78,0.00,,SCT036,0.00,VWS V14.01,2013-08-19 22:15:00,
2013-08-19 18:20:00,74.3,67.0,30.04,WSW,253,1.0,2.0,78,0.00,,SCT036,0.00,VWS V14.01,2013-08-19 22:20:00,
2013-08-19 18:25:00,74.7,67.4,30.04,WNW,284,1.0,2.0,78,0.00,,SCT036,0.00,VWS V14.01,2013-08-19 22:25:00,
2013-08-19 18:30:00,74.8,66.7,30.04,West,261,1.0,2.0,76,0.00,,SCT036,0.00,VWS V14.01,2013-08-19 22:30:00,
2013-08-19 18:35:00,74.7,67.0,30.04,WSW,257,2.0,4.0,77,0.00,,SCT036,0.00,VWS V14.01,2013-08-19 22:35:00,
2013-08-19 18:40:00,74.8,67.1,30.04,SW,217,2.0,2.0,77,0.00,,SCT036,0.00,VWS V14.01,2013-08-19 22:40:00,
2013-08-19 18:45:00,74.6,66.9,30.04,SW,235,1.0,3.0,77,0.00,,SCT036,0.00,VWS V14.01,2013-08-19 22:45:00,
2013-08-19 18:51:00,74.3,66.6,30.04,WSW,249,2.0,4.0,77,0.00,,SCT036,0.00,VWS V14.01,2013-08-19 22:51:00,
2013-08-19 18:56:00,73.9,66.6,30.04,SW,222,1.0,2.0,78,0.00,,SCT036,0.00,VWS V14.01,2013-08-19 22:56:00,
2013-08-19 19:01:00,73.8,66.9,30.04,WSW,245,0.0,3.0,79,0.00,,SCT036,0.00,VWS V14.01,2013-08-19 23:01:00,
2013-08-19 19:06:00,73.9,67.0,30.04,WSW,246,1.0,2.0,79,0.00,,BKN032,0.00,VWS V14.01,2013-08-19 23:06:00,
2013-08-19 19:11:00,73.4,66.9,30.04,WSW,239,0.0,1.0,80,0.00,,BKN032,0.00,VWS V14.01,2013-08-19 23:11:00,
2013-08-19 19:16:00,73.3,67.1,30.04,SW,224,0.0,0.0,81,0.00,,BKN032,0.00,VWS V14.01,2013-08-19 23:16:00,
2013-08-19 19:21:00,73.4,67.2,30.04,WSW,248,0.0,0.0,81,0.00,,BKN032,0.00,VWS V14.01,2013-08-19 23:21:00,
2013-08-19 19:26:00,73.3,67.1,30.04,WSW,243,0.0,1.0,81,0.00,,BKN032,0.00,VWS V14.01,2013-08-19 23:26:00,
2013-08-19 19:31:00,72.9,66.7,30.04,SW,226,0.0,1.0,81,0.00,,BKN032,0.00,VWS V14.01,2013-08-19 23:31:00,
2013-08-19 19:36:00,72.5,66.7,30.04,SSE,149,0.0,0.0,82,0.00,,BKN032,0.00,VWS V14.01,2013-08-19 23:36:00,
2013-08-19 19:42:00,71.9,66.5,30.04,SW,236,0.0,1.0,83,0.00,,BKN032,0.00,VWS V14.01,2013-08-19 23:42:00,
2013-08-19 19:47:00,71.3,66.6,30.04,SW,218,0.0,1.0,85,0.00,,BKN032,0.00,VWS V14.01,2013-08-19 23:47:00,
2013-08-19 19:52:00,70.8,66.4,30.04,SSW,200,0.0,0.0,86,0.00,,BKN032,0.00,VWS V14.01,2013-08-19 23:52:00,
2013-08-19 19:57:00,70.4,66.0,30.04,SE,139,0.0,1.0,86,0.00,,BKN032,0.00,VWS V14.01,2013-08-19 23:57:00,
2013-08-19 20:02:00,69.9,65.9,30.04,SE,124,0.0,1.0,87,0.00,,BKN032,0.00,VWS V14.01,2013-08-20 00:02:00,
2013-08-19 20:07:00,69.0,65.9,30.04,SE,146,0.0,0.0,90,0.00,,SCT034,0.00,VWS V14.01,2013-08-20 00:07:00,
2013-08-19 20:12:00,68.6,65.9,30.04,SE,145,0.0,0.0,91,0.00,,SCT034,0.00,VWS V14.01,2013-08-20 00:12:00,
2013-08-19 20:17:00,68.4,65.7,30.04,SE,145,0.0,0.0,91,0.00,,SCT034,0.00,VWS V14.01,2013-08-20 00:17:00,
2013-08-19 20:22:00,68.3,65.6,30.04,SSE,148,0.0,0.0,91,0.00,,SCT034,0.00,VWS V14.01,2013-08-20 00:22:00,
2013-08-19 20:27:00,68.2,65.5,30.04,SSE,148,0.0,0.0,91,0.00,,SCT034,0.00,VWS V14.01,2013-08-20 00:27:00,
2013-08-19 20:33:00,67.9,65.5,30.04,SSE,148,0.0,0.0,92,0.00,,SCT034,0.00,VWS V14.01,2013-08-20 00:33:00,
2013-08-19 20:38:00,67.7,65.3,30.04,SSE,148,0.0,0.0,92,0.00,,SCT034,0.00,VWS V14.01,2013-08-20 00:38:00,
2013-08-19 20:43:00,67.3,65.2,30.04,ESE,119,0.0,0.0,93,0.00,,SCT034,0.00,VWS V14.01,2013-08-20 00:43:00,
2013-08-19 20:48:00,66.8,65.0,30.04,ESE,120,0.0,1.0,94,0.00,,SCT034,0.00,VWS V14.01,2013-08-20 00:48:00,
2013-08-19 20:53:00,66.7,64.9,30.04,ESE,120,0.0,0.0,94,0.00,,SCT034,0.00,VWS V14.01,2013-08-20 00:53:00,
2013-08-19 20:58:00,66.6,64.8,30.05,ESE,120,0.0,0.0,94,0.00,,SCT034,0.00,VWS V14.01,2013-08-20 00:58:00,
2013-08-19 21:03:00,66.6,65.1,30.05,ESE,119,0.0,0.0,95,0.00,,SCT034,0.00,VWS V14.01,2013-08-20 01:03:00,
2013-08-19 21:08:00,66.4,64.9,30.05,ESE,119,0.0,0.0,95,0.00,,SCT032,0.00,VWS V14.01,2013-08-20 01:08:00,
2013-08-19 21:13:00,66.4,64.9,30.05,ESE,118,0.0,0.0,95,0.00,,SCT032,0.00,VWS V14.01,2013-08-20 01:13:00,
2013-08-19 21:18:00,66.1,64.6,30.05,ESE,118,0.0,0.0,95,0.00,,SCT032,0.00,VWS V14.01,2013-08-20 01:18:00,
2013-08-19 21:23:00,65.9,64.4,30.05,SE,124,0.0,0.0,95,0.00,,SCT032,0.00,VWS V14.01,2013-08-20 01:23:00,
2013-08-19 21:29:00,65.7,64.5,30.05,SSE,156,1.0,2.0,96,0.00,,SCT032,0.00,VWS V14.01,2013-08-20 01:29:00,
2013-08-19 21:34:00,65.7,64.5,30.05,SE,136,1.0,1.0,96,0.00,,SCT032,0.00,VWS V14.01,2013-08-20 01:34:00,
2013-08-19 21:39:00,65.9,64.7,30.05,SE,134,0.0,0.0,96,0.00,,SCT032,0.00,VWS V14.01,2013-08-20 01:39:00,
2013-08-19 21:44:00,66.0,64.8,30.06,SSE,152,0.0,0.0,96,0.00,,SCT032,0.00,VWS V14.01,2013-08-20 01:44:00,
2013-08-19 21:49:00,66.0,64.8,30.06,SE,139,0.0,1.0,96,0.00,,SCT032,0.00,VWS V14.01,2013-08-20 01:49:00,
2013-08-19 21:54:00,65.8,64.3,30.06,SE,128,0.0,1.0,95,0.00,,SCT032,0.00,VWS V14.01,2013-08-20 01:54:00,
2013-08-19 21:59:00,65.6,64.4,30.06,SE,135,0.0,1.0,96,0.00,,SCT032,0.00,VWS V14.01,2013-08-20 01:59:00,
2013-08-19 22:04:00,65.8,64.9,30.06,SSE,148,0.0,1.0,97,0.00,,CLR,0.00,VWS V14.01,2013-08-20 02:04:00,
2013-08-19 22:09:00,66.0,64.8,30.06,SE,132,0.0,1.0,96,0.00,,CLR,0.00,VWS V14.01,2013-08-20 02:09:00,
2013-08-19 22:14:00,66.1,64.9,30.06,SSE,149,0.0,0.0,96,0.00,,CLR,0.00,VWS V14.01,2013-08-20 02:14:00,
2013-08-19 22:19:00,66.3,65.1,30.06,SSE,149,0.0,0.0,96,0.00,,CLR,0.00,VWS V14.01,2013-08-20 02:19:00,
2013-08-19 22:24:00,66.3,65.1,30.06,SE,133,0.0,0.0,96,0.00,,CLR,0.00,VWS V14.01,2013-08-20 02:24:00,
2013-08-19 22:29:00,66.3,65.1,30.06,SE,133,0.0,1.0,96,0.00,,CLR,0.00,VWS V14.01,2013-08-20 02:29:00,
2013-08-19 22:35:00,65.9,64.7,30.06,SE,133,0.0,1.0,96,0.00,,CLR,0.00,VWS V14.01,2013-08-20 02:35:00,
2013-08-19 22:40:00,65.7,64.5,30.06,SE,138,0.0,1.0,96,0.00,,CLR,0.00,VWS V14.01,2013-08-20 02:40:00,
2013-08-19 22:45:00,65.8,64.9,30.06,SE,134,0.0,1.0,97,0.00,,CLR,0.00,VWS V14.01,2013-08-20 02:45:00,
2013-08-19 22:50:00,65.9,65.0,30.06,SE,134,0.0,0.0,97,0.00,,CLR,0.00,VWS V14.01,2013-08-20 02:50:00,
2013-08-19 22:55:00,66.0,65.1,30.06,SE,134,0.0,0.0,97,0.00,,CLR,0.00,VWS V14.01,2013-08-20 02:55:00,
2013-08-19 23:00:00,65.8,64.9,30.06,SE,134,0.0,0.0,97,0.00,,CLR,0.00,VWS V14.01,2013-08-20 03:00:00,
2013-08-19 23:05:00,65.6,64.7,30.06,SE,134,0.0,0.0,97,0.00,,CLR,0.00,VWS V14.01,2013-08-20 03:05:00,
2013-08-19 23:10:00,65.6,64.7,30.07,SE,134,0.0,0.0,97,0.00,,CLR,0.00,VWS V14.01,2013-08-20 03:10:00,
2013-08-19 23:15:00,65.7,64.8,30.07,SE,134,0.0,0.0,97,0.00,,CLR,0.00,VWS V14.01,2013-08-20 03:15:00,
2013-08-19 23:20:00,65.8,64.9,30.07,SE,134,0.0,0.0,97,0.00,,CLR,0.00,VWS V14.01,2013-08-20 03:20:00,
2013-08-19 23:25:00,65.8,64.9,30.07,SE,134,0.0,0.0,97,0.00,,CLR,0.00,VWS V14.01,2013-08-20 03:25:00,
2013-08-19 23:30:00,65.8,65.2,30.07,SE,134,0.0,0.0,98,0.00,,CLR,0.00,VWS V14.01,2013-08-20 03:30:00,
2013-08-19 23:35:00,65.6,64.7,30.07,SE,134,0.0,0.0,97,0.00,,CLR,0.00,VWS V14.01,2013-08-20 03:35:00,
2013-08-19 23:40:00,65.5,64.9,30.07,SE,134,0.0,0.0,98,0.00,,CLR,0.00,VWS V14.01,2013-08-20 03:40:00,
2013-08-19 23:45:00,65.6,65.0,30.07,SE,134,0.0,0.0,98,0.00,,CLR,0.00,VWS V14.01,2013-08-20 03:45:00,
2013-08-19 23:51:00,65.6,65.0,30.07,SE,134,0.0,0.0,98,0.00,,CLR,0.00,VWS V14.01,2013-08-20 03:51:00,
2013-08-19 23:56:00,65.6,65.0,30.07,SE,134,0.0,0.0,98,0.00,,CLR,0.00,VWS V14.01,2013-08-20 03:56:00,